sensor_id;sensor_type;location;lat;lon;timestamp;P1;durP1;ratioP1;P2;durP2;ratioP2
10729;SDS011;5416;59.258;18.128;2023-03-02T00:00:01;3.90;;;3.80;;
10729;SDS011;5416;59.258;18.128;2023-03-02T00:02:34;4.18;;;4.07;;
10729;SDS011;5416;59.258;18.128;2023-03-02T00:05:05;4.03;;;3.92;;
10729;SDS011;5416;59.258;18.128;2023-03-02T00:07:35;3.97;;;3.87;;
10729;SDS011;5416;59.258;18.128;2023-03-02T00:10:03;3.63;;;3.53;;
10729;SDS011;5416;59.258;18.128;2023-03-02T00:12:31;3.60;;;3.50;;
10729;SDS011;5416;59.258;18.128;2023-03-02T00:14:59;3.78;;;3.67;;
10729;SDS011;5416;59.258;18.128;2023-03-02T00:17:26;3.70;;;3.60;;
10729;SDS011;5416;59.258;18.128;2023-03-02T00:19:53;3.60;;;3.50;;
10729;SDS011;5416;59.258;18.128;2023-03-02T00:22:24;4.05;;;3.95;;
10729;SDS011;5416;59.258;18.128;2023-03-02T00:24:52;3.72;;;3.63;;
10729;SDS011;5416;59.258;18.128;2023-03-02T00:27:20;3.45;;;3.35;;
10729;SDS011;5416;59.258;18.128;2023-03-02T00:29:48;3.30;;;3.20;;
10729;SDS011;5416;59.258;18.128;2023-03-02T00:32:16;3.30;;;3.20;;
10729;SDS011;5416;59.258;18.128;2023-03-02T00:34:45;3.90;;;3.80;;
10729;SDS011;5416;59.258;18.128;2023-03-02T00:37:12;3.88;;;3.78;;
10729;SDS011;5416;59.258;18.128;2023-03-02T00:39:40;4.13;;;4.03;;
10729;SDS011;5416;59.258;18.128;2023-03-02T00:42:08;3.20;;;3.10;;
10729;SDS011;5416;59.258;18.128;2023-03-02T00:44:36;3.25;;;3.15;;
10729;SDS011;5416;59.258;18.128;2023-03-02T00:47:03;3.70;;;3.60;;
10729;SDS011;5416;59.258;18.128;2023-03-02T00:49:30;4.40;;;4.30;;
10729;SDS011;5416;59.258;18.128;2023-03-02T00:51:58;3.78;;;3.67;;
10729;SDS011;5416;59.258;18.128;2023-03-02T00:54:26;3.47;;;3.38;;
10729;SDS011;5416;59.258;18.128;2023-03-02T00:56:53;3.22;;;3.13;;
10729;SDS011;5416;59.258;18.128;2023-03-02T00:59:22;3.53;;;3.42;;
10729;SDS011;5416;59.258;18.128;2023-03-02T01:01:52;3.42;;;3.33;;
10729;SDS011;5416;59.258;18.128;2023-03-02T01:04:22;3.75;;;3.65;;
10729;SDS011;5416;59.258;18.128;2023-03-02T01:06:53;3.92;;;3.83;;
10729;SDS011;5416;59.258;18.128;2023-03-02T01:09:21;3.22;;;3.13;;
10729;SDS011;5416;59.258;18.128;2023-03-02T01:11:48;3.20;;;3.10;;
10729;SDS011;5416;59.258;18.128;2023-03-02T01:14:15;3.38;;;3.28;;
10729;SDS011;5416;59.258;18.128;2023-03-02T01:16:44;3.88;;;3.78;;
10729;SDS011;5416;59.258;18.128;2023-03-02T01:19:11;3.70;;;3.60;;
10729;SDS011;5416;59.258;18.128;2023-03-02T01:21:39;3.15;;;3.05;;
10729;SDS011;5416;59.258;18.128;2023-03-02T01:24:07;3.50;;;3.40;;
10729;SDS011;5416;59.258;18.128;2023-03-02T01:26:34;3.30;;;3.20;;
10729;SDS011;5416;59.258;18.128;2023-03-02T01:29:02;3.80;;;3.70;;
10729;SDS011;5416;59.258;18.128;2023-03-02T01:31:29;3.47;;;3.38;;
10729;SDS011;5416;59.258;18.128;2023-03-02T01:33:58;3.45;;;3.35;;
10729;SDS011;5416;59.258;18.128;2023-03-02T01:36:25;3.50;;;3.40;;
10729;SDS011;5416;59.258;18.128;2023-03-02T01:38:53;3.53;;;3.42;;
10729;SDS011;5416;59.258;18.128;2023-03-02T01:41:20;3.58;;;3.47;;
10729;SDS011;5416;59.258;18.128;2023-03-02T01:43:47;3.03;;;2.92;;
10729;SDS011;5416;59.258;18.128;2023-03-02T01:46:15;3.40;;;3.30;;
10729;SDS011;5416;59.258;18.128;2023-03-02T01:48:44;3.30;;;3.20;;
10729;SDS011;5416;59.258;18.128;2023-03-02T01:51:14;4.07;;;3.97;;
10729;SDS011;5416;59.258;18.128;2023-03-02T01:53:42;3.92;;;3.83;;
10729;SDS011;5416;59.258;18.128;2023-03-02T01:56:12;3.30;;;3.20;;
10729;SDS011;5416;59.258;18.128;2023-03-02T01:58:41;3.53;;;3.42;;
10729;SDS011;5416;59.258;18.128;2023-03-02T02:01:10;3.70;;;3.60;;
10729;SDS011;5416;59.258;18.128;2023-03-02T02:03:40;4.17;;;4.07;;
10729;SDS011;5416;59.258;18.128;2023-03-02T02:06:10;3.47;;;3.38;;
10729;SDS011;5416;59.258;18.128;2023-03-02T02:08:43;3.05;;;2.95;;
10729;SDS011;5416;59.258;18.128;2023-03-02T02:11:11;3.10;;;3.00;;
10729;SDS011;5416;59.258;18.128;2023-03-02T02:13:38;3.40;;;3.30;;
10729;SDS011;5416;59.258;18.128;2023-03-02T02:16:06;4.50;;;4.40;;
10729;SDS011;5416;59.258;18.128;2023-03-02T02:18:34;2.90;;;2.80;;
10729;SDS011;5416;59.258;18.128;2023-03-02T02:21:01;3.60;;;3.50;;
10729;SDS011;5416;59.258;18.128;2023-03-02T02:23:32;3.57;;;3.47;;
10729;SDS011;5416;59.258;18.128;2023-03-02T02:26:06;3.60;;;3.50;;
10729;SDS011;5416;59.258;18.128;2023-03-02T02:28:34;3.25;;;3.15;;
10729;SDS011;5416;59.258;18.128;2023-03-02T02:31:04;3.40;;;3.30;;
10729;SDS011;5416;59.258;18.128;2023-03-02T02:33:32;3.63;;;3.53;;
10729;SDS011;5416;59.258;18.128;2023-03-02T02:36:02;3.95;;;3.85;;
10729;SDS011;5416;59.258;18.128;2023-03-02T02:38:30;3.22;;;3.13;;
10729;SDS011;5416;59.258;18.128;2023-03-02T02:40:58;3.38;;;3.28;;
10729;SDS011;5416;59.258;18.128;2023-03-02T02:43:29;3.47;;;3.38;;
10729;SDS011;5416;59.258;18.128;2023-03-02T02:45:57;3.97;;;3.88;;
10729;SDS011;5416;59.258;18.128;2023-03-02T02:48:25;3.40;;;3.30;;
10729;SDS011;5416;59.258;18.128;2023-03-02T02:50:55;3.72;;;3.63;;
10729;SDS011;5416;59.258;18.128;2023-03-02T02:53:27;3.67;;;3.58;;
10729;SDS011;5416;59.258;18.128;2023-03-02T02:55:55;3.95;;;3.85;;
10729;SDS011;5416;59.258;18.128;2023-03-02T02:58:26;3.08;;;2.97;;
10729;SDS011;5416;59.258;18.128;2023-03-02T03:00:55;2.92;;;2.83;;
10729;SDS011;5416;59.258;18.128;2023-03-02T03:03:24;3.42;;;3.33;;
10729;SDS011;5416;59.258;18.128;2023-03-02T03:05:56;3.67;;;3.58;;
10729;SDS011;5416;59.258;18.128;2023-03-02T03:11:10;3.50;;;3.40;;
10729;SDS011;5416;59.258;18.128;2023-03-02T03:13:37;3.45;;;3.35;;
10729;SDS011;5416;59.258;18.128;2023-03-02T03:16:06;3.80;;;3.70;;
10729;SDS011;5416;59.258;18.128;2023-03-02T03:18:35;3.33;;;3.22;;
10729;SDS011;5416;59.258;18.128;2023-03-02T03:21:04;3.53;;;3.42;;
10729;SDS011;5416;59.258;18.128;2023-03-02T03:23:31;3.40;;;3.30;;
10729;SDS011;5416;59.258;18.128;2023-03-02T03:26:02;3.80;;;3.70;;
10729;SDS011;5416;59.258;18.128;2023-03-02T03:28:29;2.75;;;2.65;;
10729;SDS011;5416;59.258;18.128;2023-03-02T03:30:57;3.40;;;3.30;;
10729;SDS011;5416;59.258;18.128;2023-03-02T03:33:25;3.53;;;3.42;;
10729;SDS011;5416;59.258;18.128;2023-03-02T03:35:53;3.40;;;3.30;;
10729;SDS011;5416;59.258;18.128;2023-03-02T03:38:20;3.20;;;3.10;;
10729;SDS011;5416;59.258;18.128;2023-03-02T03:40:47;3.43;;;3.33;;
10729;SDS011;5416;59.258;18.128;2023-03-02T03:43:15;3.50;;;3.40;;
10729;SDS011;5416;59.258;18.128;2023-03-02T03:45:42;3.85;;;3.75;;
10729;SDS011;5416;59.258;18.128;2023-03-02T03:48:09;3.17;;;3.08;;
10729;SDS011;5416;59.258;18.128;2023-03-02T03:50:38;3.55;;;3.45;;
10729;SDS011;5416;59.258;18.128;2023-03-02T03:53:05;3.58;;;3.47;;
10729;SDS011;5416;59.258;18.128;2023-03-02T03:55:33;3.30;;;3.20;;
10729;SDS011;5416;59.258;18.128;2023-03-02T03:58:00;3.15;;;3.05;;
10729;SDS011;5416;59.258;18.128;2023-03-02T04:00:27;3.30;;;3.20;;
10729;SDS011;5416;59.258;18.128;2023-03-02T04:02:55;3.63;;;3.53;;
10729;SDS011;5416;59.258;18.128;2023-03-02T04:05:22;3.23;;;3.13;;
10729;SDS011;5416;59.258;18.128;2023-03-02T04:07:51;3.55;;;3.45;;
10729;SDS011;5416;59.258;18.128;2023-03-02T04:10:18;3.35;;;3.25;;
10729;SDS011;5416;59.258;18.128;2023-03-02T04:12:45;3.85;;;3.75;;
10729;SDS011;5416;59.258;18.128;2023-03-02T04:15:14;2.90;;;2.80;;
10729;SDS011;5416;59.258;18.128;2023-03-02T04:17:42;3.30;;;3.20;;
10729;SDS011;5416;59.258;18.128;2023-03-02T04:20:10;3.30;;;3.20;;
10729;SDS011;5416;59.258;18.128;2023-03-02T04:22:40;3.95;;;3.85;;
10729;SDS011;5416;59.258;18.128;2023-03-02T04:25:09;3.28;;;3.17;;
10729;SDS011;5416;59.258;18.128;2023-03-02T04:27:37;3.78;;;3.67;;
10729;SDS011;5416;59.258;18.128;2023-03-02T04:30:05;4.03;;;3.92;;
10729;SDS011;5416;59.258;18.128;2023-03-02T04:32:35;2.67;;;2.58;;
10729;SDS011;5416;59.258;18.128;2023-03-02T04:35:02;3.20;;;3.10;;
10729;SDS011;5416;59.258;18.128;2023-03-02T04:37:29;3.67;;;3.58;;
10729;SDS011;5416;59.258;18.128;2023-03-02T04:39:57;3.40;;;3.30;;
10729;SDS011;5416;59.258;18.128;2023-03-02T04:42:25;3.20;;;3.10;;
10729;SDS011;5416;59.258;18.128;2023-03-02T04:44:53;3.70;;;3.60;;
10729;SDS011;5416;59.258;18.128;2023-03-02T04:47:20;3.88;;;3.78;;
10729;SDS011;5416;59.258;18.128;2023-03-02T04:49:47;3.22;;;3.13;;
10729;SDS011;5416;59.258;18.128;2023-03-02T04:52:18;3.22;;;3.13;;
10729;SDS011;5416;59.258;18.128;2023-03-02T04:54:46;3.40;;;3.30;;
10729;SDS011;5416;59.258;18.128;2023-03-02T04:57:13;3.20;;;3.10;;
10729;SDS011;5416;59.258;18.128;2023-03-02T04:59:42;3.10;;;3.00;;
10729;SDS011;5416;59.258;18.128;2023-03-02T05:02:09;3.50;;;3.40;;
10729;SDS011;5416;59.258;18.128;2023-03-02T05:04:37;3.08;;;2.97;;
10729;SDS011;5416;59.258;18.128;2023-03-02T05:07:06;3.28;;;3.17;;
10729;SDS011;5416;59.258;18.128;2023-03-02T05:09:33;3.58;;;3.47;;
10729;SDS011;5416;59.258;18.128;2023-03-02T05:12:00;3.38;;;3.28;;
10729;SDS011;5416;59.258;18.128;2023-03-02T05:14:28;3.00;;;2.90;;
10729;SDS011;5416;59.258;18.128;2023-03-02T05:16:57;3.53;;;3.42;;
10729;SDS011;5416;59.258;18.128;2023-03-02T05:19:24;3.42;;;3.33;;
10729;SDS011;5416;59.258;18.128;2023-03-02T05:21:52;3.10;;;3.00;;
10729;SDS011;5416;59.258;18.128;2023-03-02T05:24:20;3.60;;;3.50;;
10729;SDS011;5416;59.258;18.128;2023-03-02T05:26:47;4.05;;;3.95;;
10729;SDS011;5416;59.258;18.128;2023-03-02T05:29:15;2.70;;;2.60;;
10729;SDS011;5416;59.258;18.128;2023-03-02T05:31:43;3.33;;;3.22;;
10729;SDS011;5416;59.258;18.128;2023-03-02T05:34:13;3.45;;;3.35;;
10729;SDS011;5416;59.258;18.128;2023-03-02T05:36:41;3.57;;;3.47;;
10729;SDS011;5416;59.258;18.128;2023-03-02T05:39:09;3.20;;;3.10;;
10729;SDS011;5416;59.258;18.128;2023-03-02T05:41:36;3.30;;;3.20;;
10729;SDS011;5416;59.258;18.128;2023-03-02T05:44:04;3.35;;;3.25;;
10729;SDS011;5416;59.258;18.128;2023-03-02T05:46:33;3.00;;;2.90;;
10729;SDS011;5416;59.258;18.128;2023-03-02T05:49:00;2.95;;;2.85;;
10729;SDS011;5416;59.258;18.128;2023-03-02T05:51:29;3.65;;;3.55;;
10729;SDS011;5416;59.258;18.128;2023-03-02T05:53:56;3.60;;;3.50;;
10729;SDS011;5416;59.258;18.128;2023-03-02T05:56:24;3.35;;;3.25;;
10729;SDS011;5416;59.258;18.128;2023-03-02T05:58:51;3.28;;;3.17;;
10729;SDS011;5416;59.258;18.128;2023-03-02T06:01:18;3.58;;;3.47;;
10729;SDS011;5416;59.258;18.128;2023-03-02T06:03:45;3.10;;;3.00;;
10729;SDS011;5416;59.258;18.128;2023-03-02T06:06:13;3.20;;;3.10;;
10729;SDS011;5416;59.258;18.128;2023-03-02T06:08:42;3.53;;;3.42;;
10729;SDS011;5416;59.258;18.128;2023-03-02T06:11:09;3.75;;;3.65;;
10729;SDS011;5416;59.258;18.128;2023-03-02T06:13:37;3.08;;;2.97;;
10729;SDS011;5416;59.258;18.128;2023-03-02T06:16:05;3.00;;;2.90;;
10729;SDS011;5416;59.258;18.128;2023-03-02T06:18:33;3.40;;;3.30;;
10729;SDS011;5416;59.258;18.128;2023-03-02T06:21:00;2.90;;;2.80;;
10729;SDS011;5416;59.258;18.128;2023-03-02T06:23:28;3.30;;;3.20;;
10729;SDS011;5416;59.258;18.128;2023-03-02T06:25:57;3.40;;;3.30;;
10729;SDS011;5416;59.258;18.128;2023-03-02T06:28:24;3.60;;;3.50;;
10729;SDS011;5416;59.258;18.128;2023-03-02T06:30:52;2.92;;;2.83;;
10729;SDS011;5416;59.258;18.128;2023-03-02T06:33:19;3.53;;;3.42;;
10729;SDS011;5416;59.258;18.128;2023-03-02T06:35:46;3.50;;;3.40;;
10729;SDS011;5416;59.258;18.128;2023-03-02T06:38:14;3.00;;;2.90;;
10729;SDS011;5416;59.258;18.128;2023-03-02T06:40:41;3.20;;;3.10;;
10729;SDS011;5416;59.258;18.128;2023-03-02T06:43:10;3.45;;;3.35;;
10729;SDS011;5416;59.258;18.128;2023-03-02T06:45:37;3.67;;;3.58;;
10729;SDS011;5416;59.258;18.128;2023-03-02T06:48:04;3.15;;;3.05;;
10729;SDS011;5416;59.258;18.128;2023-03-02T06:50:32;3.20;;;3.10;;
10729;SDS011;5416;59.258;18.128;2023-03-02T06:53:00;3.78;;;3.67;;
10729;SDS011;5416;59.258;18.128;2023-03-02T06:55:27;3.17;;;3.08;;
10729;SDS011;5416;59.258;18.128;2023-03-02T06:57:54;3.10;;;3.00;;
10729;SDS011;5416;59.258;18.128;2023-03-02T07:00:23;3.38;;;3.28;;
10729;SDS011;5416;59.258;18.128;2023-03-02T07:02:52;3.88;;;3.78;;
10729;SDS011;5416;59.258;18.128;2023-03-02T07:05:20;3.13;;;3.03;;
10729;SDS011;5416;59.258;18.128;2023-03-02T07:07:48;3.15;;;3.05;;
10729;SDS011;5416;59.258;18.128;2023-03-02T07:10:16;3.95;;;3.85;;
10729;SDS011;5416;59.258;18.128;2023-03-02T07:12:43;3.72;;;3.63;;
10729;SDS011;5416;59.258;18.128;2023-03-02T07:15:10;3.88;;;3.78;;
10729;SDS011;5416;59.258;18.128;2023-03-02T07:17:40;3.40;;;3.30;;
10729;SDS011;5416;59.258;18.128;2023-03-02T07:20:09;3.38;;;3.28;;
10729;SDS011;5416;59.258;18.128;2023-03-02T07:22:36;3.50;;;3.40;;
10729;SDS011;5416;59.258;18.128;2023-03-02T07:25:04;3.63;;;3.53;;
10729;SDS011;5416;59.258;18.128;2023-03-02T07:27:32;3.55;;;3.45;;
10729;SDS011;5416;59.258;18.128;2023-03-02T07:29:59;3.35;;;3.25;;
10729;SDS011;5416;59.258;18.128;2023-03-02T07:32:27;3.60;;;3.50;;
10729;SDS011;5416;59.258;18.128;2023-03-02T07:34:55;4.25;;;4.15;;
10729;SDS011;5416;59.258;18.128;2023-03-02T07:37:23;3.47;;;3.38;;
10729;SDS011;5416;59.258;18.128;2023-03-02T07:39:50;3.90;;;3.80;;
10729;SDS011;5416;59.258;18.128;2023-03-02T07:42:17;3.70;;;3.60;;
10729;SDS011;5416;59.258;18.128;2023-03-02T07:44:45;3.90;;;3.80;;
10729;SDS011;5416;59.258;18.128;2023-03-02T07:47:12;3.75;;;3.65;;
10729;SDS011;5416;59.258;18.128;2023-03-02T07:49:39;3.70;;;3.60;;
10729;SDS011;5416;59.258;18.128;2023-03-02T07:52:08;4.05;;;3.95;;
10729;SDS011;5416;59.258;18.128;2023-03-02T07:54:35;3.50;;;3.40;;
10729;SDS011;5416;59.258;18.128;2023-03-02T07:57:03;3.90;;;3.80;;
10729;SDS011;5416;59.258;18.128;2023-03-02T07:59:30;4.03;;;3.92;;
10729;SDS011;5416;59.258;18.128;2023-03-02T08:01:57;3.80;;;3.70;;
10729;SDS011;5416;59.258;18.128;2023-03-02T08:04:25;4.30;;;4.20;;
10729;SDS011;5416;59.258;18.128;2023-03-02T08:06:52;3.77;;;3.67;;
10729;SDS011;5416;59.258;18.128;2023-03-02T08:09:21;3.90;;;3.80;;
10729;SDS011;5416;59.258;18.128;2023-03-02T08:11:48;3.90;;;3.80;;
10729;SDS011;5416;59.258;18.128;2023-03-02T08:14:15;3.95;;;3.85;;
10729;SDS011;5416;59.258;18.128;2023-03-02T08:16:43;3.83;;;3.72;;
10729;SDS011;5416;59.258;18.128;2023-03-02T08:19:11;3.87;;;3.77;;
10729;SDS011;5416;59.258;18.128;2023-03-02T08:21:38;4.07;;;3.97;;
10729;SDS011;5416;59.258;18.128;2023-03-02T08:24:05;3.85;;;3.75;;
10729;SDS011;5416;59.258;18.128;2023-03-02T08:26:34;3.72;;;3.63;;
10729;SDS011;5416;59.258;18.128;2023-03-02T08:29:02;3.60;;;3.50;;
10729;SDS011;5416;59.258;18.128;2023-03-02T08:31:29;3.90;;;3.80;;
10729;SDS011;5416;59.258;18.128;2023-03-02T08:33:57;4.00;;;3.90;;
10729;SDS011;5416;59.258;18.128;2023-03-02T08:36:24;4.32;;;4.22;;
10729;SDS011;5416;59.258;18.128;2023-03-02T08:38:52;3.70;;;3.60;;
10729;SDS011;5416;59.258;18.128;2023-03-02T08:41:20;3.70;;;3.60;;
10729;SDS011;5416;59.258;18.128;2023-03-02T08:43:49;3.90;;;3.80;;
10729;SDS011;5416;59.258;18.128;2023-03-02T08:46:18;3.67;;;3.58;;
10729;SDS011;5416;59.258;18.128;2023-03-02T08:48:46;4.03;;;3.92;;
10729;SDS011;5416;59.258;18.128;2023-03-02T08:51:14;3.83;;;3.73;;
10729;SDS011;5416;59.258;18.128;2023-03-02T08:53:43;3.90;;;3.80;;
10729;SDS011;5416;59.258;18.128;2023-03-02T08:56:14;3.90;;;3.80;;
10729;SDS011;5416;59.258;18.128;2023-03-02T08:58:41;3.88;;;3.78;;
10729;SDS011;5416;59.258;18.128;2023-03-02T09:01:13;3.55;;;3.45;;
10729;SDS011;5416;59.258;18.128;2023-03-02T09:03:40;3.45;;;3.35;;
10729;SDS011;5416;59.258;18.128;2023-03-02T09:06:08;3.80;;;3.70;;
10729;SDS011;5416;59.258;18.128;2023-03-02T09:08:35;3.72;;;3.63;;
10729;SDS011;5416;59.258;18.128;2023-03-02T09:11:03;4.00;;;3.90;;
10729;SDS011;5416;59.258;18.128;2023-03-02T09:13:30;3.80;;;3.70;;
10729;SDS011;5416;59.258;18.128;2023-03-02T09:15:58;3.97;;;3.88;;
10729;SDS011;5416;59.258;18.128;2023-03-02T09:18:27;3.90;;;3.80;;
10729;SDS011;5416;59.258;18.128;2023-03-02T09:20:54;3.40;;;3.30;;
10729;SDS011;5416;59.258;18.128;2023-03-02T09:23:22;3.80;;;3.70;;
10729;SDS011;5416;59.258;18.128;2023-03-02T09:25:50;3.50;;;3.40;;
10729;SDS011;5416;59.258;18.128;2023-03-02T09:28:17;3.78;;;3.67;;
10729;SDS011;5416;59.258;18.128;2023-03-02T09:30:46;3.67;;;3.58;;
10729;SDS011;5416;59.258;18.128;2023-03-02T09:33:14;3.70;;;3.60;;
10729;SDS011;5416;59.258;18.128;2023-03-02T09:35:42;3.40;;;3.30;;
10729;SDS011;5416;59.258;18.128;2023-03-02T09:38:10;3.50;;;3.40;;
10729;SDS011;5416;59.258;18.128;2023-03-02T09:40:42;4.07;;;3.97;;
10729;SDS011;5416;59.258;18.128;2023-03-02T09:43:16;3.80;;;3.70;;
10729;SDS011;5416;59.258;18.128;2023-03-02T09:45:51;3.72;;;3.63;;
10729;SDS011;5416;59.258;18.128;2023-03-02T09:48:21;3.67;;;3.58;;
10729;SDS011;5416;59.258;18.128;2023-03-02T09:50:54;3.58;;;3.47;;
10729;SDS011;5416;59.258;18.128;2023-03-02T09:53:29;3.43;;;3.33;;
10729;SDS011;5416;59.258;18.128;2023-03-02T09:55:57;3.80;;;3.70;;
10729;SDS011;5416;59.258;18.128;2023-03-02T09:58:28;3.90;;;3.80;;
10729;SDS011;5416;59.258;18.128;2023-03-02T10:00:57;3.57;;;3.47;;
10729;SDS011;5416;59.258;18.128;2023-03-02T10:03:28;3.88;;;3.78;;
10729;SDS011;5416;59.258;18.128;2023-03-02T10:05:59;3.72;;;3.63;;
10729;SDS011;5416;59.258;18.128;2023-03-02T10:08:27;3.78;;;3.67;;
10729;SDS011;5416;59.258;18.128;2023-03-02T10:10:56;4.07;;;3.97;;
10729;SDS011;5416;59.258;18.128;2023-03-02T10:13:27;3.97;;;3.88;;
10729;SDS011;5416;59.258;18.128;2023-03-02T10:16:00;3.67;;;3.58;;
10729;SDS011;5416;59.258;18.128;2023-03-02T10:18:32;3.57;;;3.47;;
10729;SDS011;5416;59.258;18.128;2023-03-02T10:21:04;3.80;;;3.70;;
10729;SDS011;5416;59.258;18.128;2023-03-02T10:23:38;3.67;;;3.57;;
10729;SDS011;5416;59.258;18.128;2023-03-02T10:26:09;3.87;;;3.77;;
10729;SDS011;5416;59.258;18.128;2023-03-02T10:28:40;3.75;;;3.65;;
10729;SDS011;5416;59.258;18.128;2023-03-02T10:31:11;3.60;;;3.50;;
10729;SDS011;5416;59.258;18.128;2023-03-02T10:33:40;4.00;;;3.90;;
10729;SDS011;5416;59.258;18.128;2023-03-02T10:36:13;3.65;;;3.55;;
10729;SDS011;5416;59.258;18.128;2023-03-02T10:38:45;3.85;;;3.75;;
10729;SDS011;5416;59.258;18.128;2023-03-02T10:41:13;3.70;;;3.60;;
10729;SDS011;5416;59.258;18.128;2023-03-02T10:43:43;3.80;;;3.70;;
10729;SDS011;5416;59.258;18.128;2023-03-02T10:46:12;3.80;;;3.70;;
10729;SDS011;5416;59.258;18.128;2023-03-02T10:48:46;3.83;;;3.72;;
10729;SDS011;5416;59.258;18.128;2023-03-02T10:51:21;3.90;;;3.80;;
10729;SDS011;5416;59.258;18.128;2023-03-02T10:53:48;3.90;;;3.80;;
10729;SDS011;5416;59.258;18.128;2023-03-02T10:56:17;3.70;;;3.60;;
10729;SDS011;5416;59.258;18.128;2023-03-02T10:58:45;3.90;;;3.80;;
10729;SDS011;5416;59.258;18.128;2023-03-02T11:01:15;3.75;;;3.65;;
10729;SDS011;5416;59.258;18.128;2023-03-02T11:03:53;4.10;;;4.00;;
10729;SDS011;5416;59.258;18.128;2023-03-02T11:06:22;3.63;;;3.53;;
10729;SDS011;5416;59.258;18.128;2023-03-02T11:08:56;4.45;;;4.35;;
10729;SDS011;5416;59.258;18.128;2023-03-02T11:11:24;4.20;;;4.10;;
10729;SDS011;5416;59.258;18.128;2023-03-02T11:13:51;3.75;;;3.65;;
10729;SDS011;5416;59.258;18.128;2023-03-02T11:16:21;4.20;;;4.10;;
10729;SDS011;5416;59.258;18.128;2023-03-02T11:18:49;4.45;;;4.35;;
10729;SDS011;5416;59.258;18.128;2023-03-02T11:21:19;4.05;;;3.95;;
10729;SDS011;5416;59.258;18.128;2023-03-02T11:23:51;4.05;;;3.95;;
10729;SDS011;5416;59.258;18.128;2023-03-02T11:26:22;4.60;;;4.50;;
10729;SDS011;5416;59.258;18.128;2023-03-02T11:28:52;4.15;;;4.05;;
10729;SDS011;5416;59.258;18.128;2023-03-02T11:31:28;4.47;;;4.37;;
10729;SDS011;5416;59.258;18.128;2023-03-02T11:34:04;4.30;;;4.20;;
10729;SDS011;5416;59.258;18.128;2023-03-02T11:36:41;4.18;;;4.07;;
10729;SDS011;5416;59.258;18.128;2023-03-02T11:39:13;3.75;;;3.65;;
10729;SDS011;5416;59.258;18.128;2023-03-02T11:41:41;3.72;;;3.63;;
10729;SDS011;5416;59.258;18.128;2023-03-02T11:44:12;4.10;;;4.00;;
10729;SDS011;5416;59.258;18.128;2023-03-02T11:46:40;4.07;;;3.97;;
10729;SDS011;5416;59.258;18.128;2023-03-02T11:49:11;3.92;;;3.83;;
10729;SDS011;5416;59.258;18.128;2023-03-02T11:51:41;4.00;;;3.90;;
10729;SDS011;5416;59.258;18.128;2023-03-02T11:54:15;4.07;;;3.97;;
10729;SDS011;5416;59.258;18.128;2023-03-02T11:56:45;3.90;;;3.80;;
10729;SDS011;5416;59.258;18.128;2023-03-02T11:59:14;3.73;;;3.63;;
10729;SDS011;5416;59.258;18.128;2023-03-02T12:01:43;4.20;;;4.10;;
10729;SDS011;5416;59.258;18.128;2023-03-02T12:04:24;3.83;;;3.72;;
10729;SDS011;5416;59.258;18.128;2023-03-02T12:06:51;3.83;;;3.72;;
10729;SDS011;5416;59.258;18.128;2023-03-02T12:09:28;4.28;;;4.18;;
10729;SDS011;5416;59.258;18.128;2023-03-02T12:11:58;4.30;;;4.20;;
10729;SDS011;5416;59.258;18.128;2023-03-02T12:14:28;4.18;;;4.07;;
10729;SDS011;5416;59.258;18.128;2023-03-02T12:17:05;4.57;;;4.47;;
10729;SDS011;5416;59.258;18.128;2023-03-02T12:19:39;4.97;;;4.78;;
10729;SDS011;5416;59.258;18.128;2023-03-02T12:22:08;4.30;;;4.20;;
10729;SDS011;5416;59.258;18.128;2023-03-02T12:24:40;4.47;;;4.38;;
10729;SDS011;5416;59.258;18.128;2023-03-02T12:27:21;4.05;;;3.95;;
10729;SDS011;5416;59.258;18.128;2023-03-02T12:29:50;4.20;;;4.10;;
10729;SDS011;5416;59.258;18.128;2023-03-02T12:32:22;4.53;;;4.40;;
10729;SDS011;5416;59.258;18.128;2023-03-02T12:34:54;4.07;;;3.97;;
10729;SDS011;5416;59.258;18.128;2023-03-02T12:37:22;4.28;;;4.18;;
10729;SDS011;5416;59.258;18.128;2023-03-02T12:42:41;4.43;;;4.33;;
10729;SDS011;5416;59.258;18.128;2023-03-02T12:45:13;4.30;;;4.20;;
10729;SDS011;5416;59.258;18.128;2023-03-02T12:47:45;4.22;;;4.13;;
10729;SDS011;5416;59.258;18.128;2023-03-02T12:50:16;4.13;;;4.03;;
10729;SDS011;5416;59.258;18.128;2023-03-02T12:52:44;5.05;;;4.85;;
10729;SDS011;5416;59.258;18.128;2023-03-02T12:55:22;4.13;;;4.03;;
10729;SDS011;5416;59.258;18.128;2023-03-02T12:57:52;4.20;;;4.10;;
10729;SDS011;5416;59.258;18.128;2023-03-02T13:00:20;4.40;;;4.30;;
10729;SDS011;5416;59.258;18.128;2023-03-02T13:02:49;4.00;;;3.90;;
10729;SDS011;5416;59.258;18.128;2023-03-02T13:05:17;4.50;;;4.40;;
10729;SDS011;5416;59.258;18.128;2023-03-02T13:07:46;4.60;;;4.47;;
10729;SDS011;5416;59.258;18.128;2023-03-02T13:10:19;4.00;;;3.90;;
10729;SDS011;5416;59.258;18.128;2023-03-02T13:12:47;4.47;;;4.37;;
10729;SDS011;5416;59.258;18.128;2023-03-02T13:15:16;4.32;;;4.22;;
10729;SDS011;5416;59.258;18.128;2023-03-02T13:17:44;4.60;;;4.40;;
10729;SDS011;5416;59.258;18.128;2023-03-02T13:20:18;4.20;;;4.10;;
10729;SDS011;5416;59.258;18.128;2023-03-02T13:22:46;4.40;;;4.30;;
10729;SDS011;5416;59.258;18.128;2023-03-02T13:25:19;3.95;;;3.85;;
10729;SDS011;5416;59.258;18.128;2023-03-02T13:27:50;5.03;;;4.83;;
10729;SDS011;5416;59.258;18.128;2023-03-02T13:30:22;4.28;;;4.18;;
10729;SDS011;5416;59.258;18.128;2023-03-02T13:32:50;5.18;;;4.97;;
10729;SDS011;5416;59.258;18.128;2023-03-02T13:35:19;4.45;;;4.35;;
10729;SDS011;5416;59.258;18.128;2023-03-02T13:37:53;4.38;;;4.28;;
10729;SDS011;5416;59.258;18.128;2023-03-02T13:45:59;4.47;;;4.38;;
10729;SDS011;5416;59.258;18.128;2023-03-02T13:48:27;4.90;;;4.70;;
10729;SDS011;5416;59.258;18.128;2023-03-02T13:50:55;5.03;;;4.82;;
10729;SDS011;5416;59.258;18.128;2023-03-02T13:53:23;4.15;;;4.05;;
10729;SDS011;5416;59.258;18.128;2023-03-02T13:55:50;4.43;;;4.32;;
10729;SDS011;5416;59.258;18.128;2023-03-02T13:58:19;4.43;;;4.32;;
10729;SDS011;5416;59.258;18.128;2023-03-02T14:00:47;4.38;;;4.28;;
10729;SDS011;5416;59.258;18.128;2023-03-02T14:03:20;4.38;;;4.28;;
10729;SDS011;5416;59.258;18.128;2023-03-02T14:05:49;4.20;;;4.10;;
10729;SDS011;5416;59.258;18.128;2023-03-02T14:08:16;4.25;;;4.15;;
10729;SDS011;5416;59.258;18.128;2023-03-02T14:10:44;4.40;;;4.30;;
10729;SDS011;5416;59.258;18.128;2023-03-02T14:13:12;4.20;;;4.10;;
10729;SDS011;5416;59.258;18.128;2023-03-02T14:15:41;4.22;;;4.13;;
10729;SDS011;5416;59.258;18.128;2023-03-02T14:18:11;4.95;;;4.75;;
10729;SDS011;5416;59.258;18.128;2023-03-02T14:20:45;4.22;;;4.13;;
10729;SDS011;5416;59.258;18.128;2023-03-02T14:23:12;4.15;;;4.05;;
10729;SDS011;5416;59.258;18.128;2023-03-02T14:25:40;4.68;;;4.50;;
10729;SDS011;5416;59.258;18.128;2023-03-02T14:28:07;4.17;;;4.07;;
10729;SDS011;5416;59.258;18.128;2023-03-02T14:30:35;4.55;;;4.45;;
10729;SDS011;5416;59.258;18.128;2023-03-02T14:33:02;4.40;;;4.30;;
10729;SDS011;5416;59.258;18.128;2023-03-02T14:35:29;4.47;;;4.38;;
10729;SDS011;5416;59.258;18.128;2023-03-02T14:37:58;4.30;;;4.20;;
10729;SDS011;5416;59.258;18.128;2023-03-02T14:40:26;3.97;;;3.88;;
10729;SDS011;5416;59.258;18.128;2023-03-02T14:42:54;4.47;;;4.38;;
10729;SDS011;5416;59.258;18.128;2023-03-02T14:45:21;4.40;;;4.30;;
10729;SDS011;5416;59.258;18.128;2023-03-02T14:47:48;4.35;;;4.25;;
10729;SDS011;5416;59.258;18.128;2023-03-02T14:50:16;3.90;;;3.80;;
10729;SDS011;5416;59.258;18.128;2023-03-02T14:52:44;3.75;;;3.65;;
10729;SDS011;5416;59.258;18.128;2023-03-02T14:55:14;4.85;;;4.65;;
10729;SDS011;5416;59.258;18.128;2023-03-02T14:57:43;3.80;;;3.70;;
10729;SDS011;5416;59.258;18.128;2023-03-02T15:00:12;4.10;;;4.00;;
10729;SDS011;5416;59.258;18.128;2023-03-02T15:02:39;3.97;;;3.88;;
10729;SDS011;5416;59.258;18.128;2023-03-02T15:05:07;3.58;;;3.47;;
10729;SDS011;5416;59.258;18.128;2023-03-02T15:07:34;3.88;;;3.78;;